createdAt,value
2022-09-03T10:39:12.735Z,98.90
2022-09-03T10:42:02.337Z,99.70
2022-09-03T10:44:36.484Z,99.40
2022-09-03T10:47:25.995Z,99.30
2022-09-03T10:50:19.842Z,99.10
2022-09-03T10:53:31.306Z,98.80
2022-09-03T10:56:15.044Z,98.80
2022-09-03T10:59:07.201Z,98.20
2022-09-03T11:01:56.631Z,97.10
2022-09-03T11:04:37.820Z,96.30
2022-09-03T11:07:15.109Z,97.50
2022-09-03T11:09:55.427Z,97.40
2022-09-03T11:12:47.927Z,97.10
2022-09-03T11:15:55.913Z,96.80
2022-09-03T11:18:35.017Z,96.20
2022-09-03T11:21:12.326Z,96.10
2022-09-03T11:23:47.813Z,96.50
2022-09-03T11:26:27.834Z,96.30
2022-09-03T11:29:18.296Z,95.40
2022-09-03T11:32:10.862Z,95.30
2022-09-03T11:34:54.939Z,95.10
2022-09-03T11:37:26.609Z,94.60
2022-09-03T11:39:58.855Z,94.60
2022-09-03T11:42:41.481Z,94.40
2022-09-03T11:45:21.147Z,94.00
2022-09-03T11:47:51.501Z,93.60
2022-09-03T11:50:21.564Z,93.70
2022-09-03T11:52:51.364Z,93.70
2022-09-03T11:55:27.330Z,93.60
2022-09-03T11:57:57.036Z,93.40
2022-09-03T12:00:27.486Z,93.30
2022-09-03T12:03:06.203Z,93.30
2022-09-03T12:06:22.923Z,92.50
2022-09-03T12:09:18.025Z,92.20
2022-09-03T12:12:00.675Z,91.80
2022-09-03T12:14:57.195Z,92.10
2022-09-03T12:17:33.268Z,91.80
2022-09-03T12:20:00.891Z,91.60
2022-09-03T12:22:31.324Z,91.50
2022-09-03T12:25:11.447Z,90.80
2022-09-03T12:27:47.114Z,90.70
2022-09-03T12:30:33.270Z,90.90
2022-09-03T12:33:08.396Z,91.10
2022-09-03T12:38:29.388Z,91.90
2022-09-03T12:43:59.973Z,91.20
2022-09-03T12:46:38.351Z,90.70
2022-09-03T12:52:06.276Z,91.00
2022-09-03T12:54:38.809Z,90.00
2022-09-03T12:57:14.092Z,90.30
2022-09-03T12:59:44.182Z,89.80
2022-09-03T13:03:01.041Z,90.20
2022-09-03T13:06:01.644Z,88.80
2022-09-03T13:09:01.254Z,89.30
2022-09-03T13:11:36.907Z,87.70
2022-09-03T13:14:12.834Z,89.00
2022-09-03T13:16:43.828Z,87.80
2022-09-03T13:19:25.795Z,89.00
2022-09-03T13:22:14.476Z,88.00
2022-09-03T13:24:59.594Z,87.50
2022-09-03T13:27:37.750Z,87.10
2022-09-03T13:30:08.948Z,87.90
2022-09-03T13:32:58.170Z,88.40
2022-09-03T13:35:48.514Z,86.30
2022-09-03T13:38:41.924Z,86.90
2022-09-03T13:41:37.517Z,86.20
2022-09-03T13:44:22.824Z,86.70
2022-09-03T13:47:05.719Z,85.90
2022-09-03T13:50:14.799Z,85.80
2022-09-03T13:52:57.427Z,85.70
2022-09-03T13:55:44.396Z,85.60
2022-09-03T13:58:37.525Z,85.50
2022-09-03T14:01:38.274Z,85.40
2022-09-03T14:04:17.685Z,84.00
2022-09-03T14:07:01.911Z,84.20
2022-09-03T14:09:54.601Z,84.30
2022-09-03T14:12:46.912Z,84.00
2022-09-03T14:15:25.957Z,84.50
2022-09-03T14:18:12.629Z,85.40
2022-09-03T14:20:50.534Z,85.50
2022-09-03T14:23:41.490Z,85.80
2022-09-03T14:26:35.876Z,85.40
2022-09-03T14:29:06.204Z,85.10
2022-09-03T14:31:36.339Z,84.30
2022-09-03T14:34:06.915Z,85.50
2022-09-03T14:37:00.601Z,85.50
2022-09-03T14:39:41.468Z,85.10
2022-09-03T14:42:33.560Z,85.80
2022-09-03T14:45:27.899Z,85.70
2022-09-03T14:49:09.155Z,86.20
2022-09-03T14:51:49.680Z,85.80
2022-09-03T14:54:45.051Z,84.70
2022-09-03T14:57:47.984Z,85.90
2022-09-03T15:00:20.244Z,84.80
2022-09-03T15:03:09.810Z,84.80
2022-09-03T15:06:09.634Z,84.20
2022-09-03T15:09:09.432Z,84.80
2022-09-03T15:11:55.897Z,85.00
2022-09-03T15:14:41.928Z,84.60
2022-09-03T15:17:31.466Z,85.20
2022-09-03T15:20:36.879Z,84.90
2022-09-03T15:23:17.722Z,84.90
2022-09-03T15:25:59.412Z,85.00
2022-09-03T15:28:55.684Z,84.80
2022-09-03T15:31:41.636Z,85.10
2022-09-03T15:34:27.847Z,85.40
2022-09-03T15:37:23.745Z,87.80
2022-09-03T15:40:02.480Z,87.60
2022-09-03T15:42:31.858Z,86.70
2022-09-03T15:45:58.810Z,87.30
2022-09-03T15:48:46.967Z,85.50
2022-09-03T15:51:36.657Z,85.40
2022-09-03T15:54:28.458Z,87.00
2022-09-03T15:57:22.449Z,87.00
2022-09-03T16:00:01.992Z,86.60
2022-09-03T16:02:55.521Z,86.00
2022-09-03T16:05:46.045Z,87.10
2022-09-03T16:08:23.921Z,87.00
2022-09-03T16:11:12.398Z,87.70
2022-09-03T16:14:36.993Z,87.60
2022-09-03T16:17:32.223Z,88.00
2022-09-03T16:20:31.068Z,88.20
2022-09-03T16:23:07.652Z,87.60
2022-09-03T16:26:09.720Z,87.90
2022-09-03T16:29:15.312Z,87.80
2022-09-03T16:32:23.515Z,89.10
2022-09-03T16:35:36.637Z,89.40
2022-09-03T16:38:38.559Z,89.80
2022-09-03T16:41:30.812Z,90.00
2022-09-03T16:44:20.175Z,90.60
2022-09-03T16:47:18.458Z,90.90
2022-09-03T16:50:04.454Z,90.50
2022-09-03T16:52:54.930Z,90.40
2022-09-03T16:55:54.562Z,90.60
2022-09-03T16:58:35.529Z,90.60
2022-09-03T17:01:24.976Z,90.70
2022-09-03T17:04:03.425Z,90.90
2022-09-03T17:06:49.153Z,91.00
2022-09-03T17:09:29.023Z,91.10
2022-09-03T17:12:07.910Z,91.30
2022-09-03T17:15:04.854Z,91.50
2022-09-03T17:17:38.696Z,91.80
2022-09-03T17:20:49.442Z,92.80
2022-09-03T17:23:51.102Z,92.40
2022-09-03T17:26:25.834Z,92.40
2022-09-03T17:29:14.497Z,93.10
2022-09-03T17:32:27.972Z,93.00
2022-09-03T17:35:37.756Z,93.30
2022-09-03T17:38:17.604Z,93.50
2022-09-03T17:41:02.028Z,93.70
2022-09-03T17:43:56.000Z,93.90
2022-09-03T17:46:36.976Z,93.90
2022-09-03T17:49:08.191Z,94.20
2022-09-03T17:51:59.250Z,94.10
2022-09-03T17:55:11.850Z,94.40
2022-09-03T17:57:46.968Z,94.50
2022-09-03T18:00:25.775Z,94.70
2022-09-03T18:02:59.496Z,94.90
2022-09-03T18:05:45.577Z,95.10
2022-09-03T18:08:29.262Z,95.30
2022-09-03T18:11:14.152Z,95.50
2022-09-03T18:14:07.667Z,95.80
2022-09-03T18:16:44.599Z,96.00
2022-09-03T18:19:52.633Z,96.10
2022-09-03T18:22:41.187Z,96.20
2022-09-03T18:25:31.388Z,96.40
2022-09-03T18:28:23.363Z,96.60
2022-09-03T18:31:12.763Z,96.60
2022-09-03T18:33:58.723Z,96.70
2022-09-03T18:36:45.529Z,96.90
2022-09-03T18:39:49.949Z,97.00
2022-09-03T18:42:44.854Z,97.00
2022-09-03T18:46:14.866Z,97.00
2022-09-03T18:48:55.055Z,97.20
2022-09-03T18:52:17.923Z,97.20
2022-09-03T18:55:17.054Z,97.40
2022-09-03T18:58:10.515Z,97.50
2022-09-03T19:01:03.750Z,97.60
2022-09-03T19:04:13.108Z,97.80
2022-09-03T19:07:26.114Z,98.10
2022-09-03T19:10:30.544Z,98.60
2022-09-03T19:13:52.026Z,98.60
2022-09-03T19:17:11.297Z,98.60
2022-09-03T19:20:21.189Z,98.70
2022-09-03T19:23:07.098Z,98.80
2022-09-03T19:25:55.133Z,99.10
2022-09-03T19:28:42.313Z,99.20
2022-09-03T19:31:43.987Z,99.60
2022-09-03T19:34:48.988Z,99.60
2022-09-03T19:37:53.342Z,99.70
2022-09-03T19:40:57.620Z,99.90
2022-09-03T19:44:01.642Z,99.90
2022-09-03T19:47:18.458Z,99.90
2022-09-03T19:50:13.660Z,99.90
2022-09-03T19:53:19.885Z,99.90
2022-09-03T19:56:13.210Z,99.90
2022-09-03T19:59:06.763Z,99.90
2022-09-03T20:01:55.907Z,99.90
2022-09-03T20:04:53.281Z,99.90
2022-09-03T20:07:40.542Z,99.90
2022-09-03T20:10:27.384Z,99.90
2022-09-03T20:13:05.320Z,99.90
2022-09-03T20:16:31.333Z,99.90
2022-09-03T20:19:04.202Z,99.90
2022-09-03T20:21:53.789Z,99.90
2022-09-03T20:24:40.115Z,99.90
2022-09-03T20:27:37.907Z,99.90
2022-09-03T20:30:10.661Z,99.90
2022-09-03T20:33:07.979Z,99.90
2022-09-03T20:35:56.885Z,99.90
2022-09-03T20:38:55.207Z,99.90
2022-09-03T20:41:37.409Z,99.90
2022-09-03T20:44:28.709Z,99.90
2022-09-03T20:47:08.570Z,99.90
2022-09-03T20:49:53.011Z,99.90
2022-09-03T20:52:36.970Z,99.90
2022-09-03T20:55:11.189Z,99.90
2022-09-03T20:57:54.065Z,99.90
2022-09-03T21:00:23.282Z,99.90
2022-09-03T21:03:08.831Z,99.90
2022-09-03T21:05:55.969Z,99.90
2022-09-03T21:08:53.547Z,99.90
2022-09-03T21:11:33.269Z,99.90
2022-09-03T21:14:26.373Z,99.90
2022-09-03T21:17:18.508Z,99.90
2022-09-03T21:20:08.048Z,99.90
2022-09-03T21:22:52.639Z,99.90
2022-09-03T21:25:23.864Z,99.90
2022-09-03T21:28:06.630Z,99.90
2022-09-03T21:30:40.732Z,99.90
2022-09-03T21:33:23.416Z,99.90
2022-09-03T21:35:58.368Z,99.90
2022-09-03T21:38:36.018Z,99.90
2022-09-03T21:41:16.181Z,99.90
2022-09-03T21:44:08.185Z,99.90
2022-09-03T21:46:41.510Z,99.90
2022-09-03T21:49:18.073Z,99.90
2022-09-03T21:51:58.241Z,99.90
2022-09-03T21:54:29.415Z,99.90
2022-09-03T21:57:12.491Z,99.90
2022-09-03T22:00:01.168Z,99.90
2022-09-03T22:02:31.904Z,99.90
2022-09-03T22:05:01.271Z,99.90
2022-09-03T22:08:08.887Z,99.90
2022-09-03T22:10:39.401Z,99.90
2022-09-03T22:13:14.812Z,99.90
2022-09-03T22:15:51.937Z,99.90
2022-09-03T22:18:29.675Z,99.90
2022-09-03T22:21:01.185Z,99.90
2022-09-03T22:23:46.911Z,99.90
2022-09-03T22:26:31.260Z,99.90
2022-09-03T22:29:15.450Z,99.90
2022-09-03T22:31:47.731Z,99.90
2022-09-03T22:34:34.039Z,99.90
2022-09-03T22:37:11.987Z,99.90
2022-09-03T22:39:46.111Z,99.90
2022-09-03T22:42:25.609Z,99.90
2022-09-03T22:45:23.570Z,99.90
2022-09-03T22:48:02.727Z,99.90
2022-09-03T22:50:48.134Z,99.90
2022-09-03T22:53:29.772Z,99.90
2022-09-03T22:56:22.365Z,99.90
2022-09-03T22:59:00.011Z,99.90
2022-09-03T23:01:45.375Z,99.90
2022-09-03T23:04:31.255Z,99.90
2022-09-03T23:07:08.594Z,99.90
2022-09-03T23:09:40.302Z,99.90
2022-09-03T23:12:14.799Z,99.90
2022-09-03T23:14:51.492Z,99.90
2022-09-03T23:20:00.603Z,99.90
2022-09-03T23:22:34.157Z,99.90
2022-09-03T23:25:24.489Z,99.90
2022-09-03T23:28:02.813Z,99.90
2022-09-03T23:30:30.305Z,99.90
2022-09-03T23:33:00.181Z,99.90
2022-09-03T23:35:42.896Z,99.90
2022-09-03T23:38:29.086Z,99.90
2022-09-03T23:41:03.264Z,99.90
2022-09-03T23:43:44.688Z,99.90
2022-09-03T23:46:53.663Z,99.90
2022-09-03T23:49:43.892Z,99.90
2022-09-03T23:52:26.290Z,99.90
2022-09-03T23:55:32.582Z,99.90
2022-09-03T23:58:09.489Z,99.90
